Terminal Aerodrome Forecast
Issued by NWS

Home | Current Version | Previous Version | Text Only | Print | Product List | Glossary On
Versions: 1 2 3 4 5 6 7 8 9 10 11 12
830
FTUS41 KBGM 272323
TAFELM
TAF
KELM 272323Z 2800/2824 00000KT P6SM FEW060 SCT200
     FM280500 00000KT 4SM BR FEW250
      TEMPO 2808/2811 2SM BR
     FM281300 00000KT 6SM HZ SCT250
     FM281700 VRB03KT P6SM BKN050=

USA.gov is the U.S. government's official web portal to all federal, state and local government web resources and services.